createdAt,value
2022-12-18T00:01:25.979Z,0.80
2022-12-18T00:03:56.703Z,1.27
2022-12-18T00:06:27.060Z,0.97
2022-12-18T00:08:56.778Z,1.27
2022-12-18T00:11:26.401Z,0.60
2022-12-18T00:13:56.388Z,0.97
2022-12-18T00:16:25.712Z,1.27
2022-12-18T00:18:57.059Z,1.57
2022-12-18T00:21:24.867Z,1.80
2022-12-18T00:23:53.545Z,1.33
2022-12-18T00:26:23.709Z,1.70
2022-12-18T00:28:56.493Z,0.87
2022-12-18T00:31:26.279Z,1.80
2022-12-18T00:33:57.228Z,1.30
2022-12-18T00:36:27.873Z,1.40
2022-12-18T00:38:57.058Z,1.13
2022-12-18T00:41:39.759Z,1.33
2022-12-18T00:44:09.287Z,1.90
2022-12-18T00:46:37.072Z,2.70
2022-12-18T00:49:06.163Z,0.83
2022-12-18T00:51:34.294Z,0.97
2022-12-18T00:54:02.077Z,1.13
2022-12-18T00:56:29.984Z,0.70
2022-12-18T00:58:57.696Z,1.20
2022-12-18T01:01:25.558Z,1.07
2022-12-18T01:03:53.404Z,1.43
2022-12-18T01:06:22.853Z,1.20
2022-12-18T01:08:50.656Z,1.60
2022-12-18T01:11:21.391Z,1.33
2022-12-18T01:13:49.735Z,2.37
2022-12-18T01:16:19.119Z,1.00
2022-12-18T01:18:46.986Z,0.63
2022-12-18T01:21:18.982Z,1.67
2022-12-18T01:23:48.558Z,1.23
2022-12-18T01:26:18.526Z,0.70
2022-12-18T01:28:46.308Z,1.53
2022-12-18T01:31:16.453Z,0.80
2022-12-18T01:33:44.459Z,0.80
2022-12-18T01:36:18.240Z,1.23
2022-12-18T01:38:46.297Z,1.50
2022-12-18T01:41:17.012Z,0.97
2022-12-18T01:43:51.563Z,1.63
2022-12-18T01:46:22.213Z,1.30
2022-12-18T01:48:53.343Z,0.90
2022-12-18T01:51:22.274Z,1.60
2022-12-18T01:53:50.661Z,0.90
2022-12-18T01:56:22.239Z,0.83
2022-12-18T01:58:57.230Z,0.70
2022-12-18T02:01:26.415Z,0.90
2022-12-18T02:03:55.158Z,1.00
2022-12-18T02:06:30.400Z,0.80
2022-12-18T02:09:12.417Z,2.30
2022-12-18T02:11:49.907Z,1.30
2022-12-18T02:14:25.494Z,1.43
2022-12-18T02:17:05.068Z,0.57
2022-12-18T02:19:47.060Z,1.10
2022-12-18T02:22:28.145Z,1.67
2022-12-18T02:25:14.360Z,1.63
2022-12-18T02:27:46.920Z,1.87
2022-12-18T02:30:16.199Z,1.30
2022-12-18T02:32:48.007Z,1.17
2022-12-18T02:35:21.093Z,1.20
2022-12-18T02:37:55.879Z,1.33
2022-12-18T02:40:27.965Z,1.37
2022-12-18T02:42:57.165Z,0.80
2022-12-18T02:45:25.364Z,0.70
2022-12-18T02:47:54.280Z,1.03
2022-12-18T02:50:34.792Z,2.23
2022-12-18T02:53:12.979Z,1.30
2022-12-18T02:55:54.974Z,1.20
2022-12-18T02:58:31.382Z,1.07
2022-12-18T03:01:11.314Z,1.07
2022-12-18T03:03:43.538Z,1.20
2022-12-18T03:06:19.575Z,0.83
2022-12-18T03:08:54.625Z,2.00
2022-12-18T03:11:42.733Z,1.27
2022-12-18T03:14:14.266Z,1.57
2022-12-18T03:16:43.646Z,0.77
2022-12-18T03:19:17.078Z,1.43
2022-12-18T03:21:46.984Z,0.97
2022-12-18T03:24:18.960Z,0.93
2022-12-18T03:26:51.176Z,2.03
2022-12-18T03:29:24.623Z,0.60
2022-12-18T03:31:56.508Z,0.70
2022-12-18T03:34:28.682Z,0.80
2022-12-18T03:36:56.628Z,0.83
2022-12-18T03:39:26.175Z,1.53
2022-12-18T03:42:05.606Z,1.10
2022-12-18T03:44:45.697Z,1.73
2022-12-18T03:47:17.616Z,0.40
2022-12-18T03:49:50.725Z,1.30
2022-12-18T03:52:23.135Z,1.33
2022-12-18T03:54:51.505Z,2.00
2022-12-18T03:57:22.402Z,1.10
2022-12-18T03:59:59.307Z,0.83
2022-12-18T04:02:32.370Z,0.90
2022-12-18T04:05:06.381Z,0.60
2022-12-18T04:07:38.078Z,0.93
2022-12-18T04:10:08.948Z,1.00
2022-12-18T04:12:38.967Z,1.57
2022-12-18T04:15:12.321Z,1.53
2022-12-18T04:17:40.780Z,0.90
2022-12-18T04:20:10.068Z,0.83
2022-12-18T04:22:41.455Z,1.90
2022-12-18T04:25:10.145Z,1.17
2022-12-18T04:27:41.364Z,1.27
2022-12-18T04:30:12.394Z,1.63
2022-12-18T04:32:40.336Z,1.00
2022-12-18T04:35:11.465Z,1.30
2022-12-18T04:37:42.055Z,1.50
2022-12-18T04:40:10.984Z,0.70
2022-12-18T04:42:43.386Z,0.90
2022-12-18T04:45:12.632Z,1.90
2022-12-18T04:47:40.383Z,1.00
2022-12-18T04:50:08.868Z,0.50
2022-12-18T04:52:36.657Z,0.60
2022-12-18T04:55:04.879Z,1.83
2022-12-18T04:57:32.613Z,0.60
2022-12-18T05:00:00.318Z,1.13
2022-12-18T05:02:29.461Z,1.23
2022-12-18T05:04:57.236Z,0.50
2022-12-18T05:07:25.027Z,1.33
2022-12-18T05:09:52.829Z,1.53
2022-12-18T05:12:20.552Z,0.60
2022-12-18T05:14:48.265Z,1.10
2022-12-18T05:17:15.979Z,1.07
2022-12-18T05:19:45.074Z,0.57
2022-12-18T05:22:13.504Z,0.90
2022-12-18T05:24:41.518Z,0.80
2022-12-18T05:27:09.302Z,0.70
2022-12-18T05:29:37.037Z,0.53
2022-12-18T05:32:05.076Z,0.80
2022-12-18T05:34:34.316Z,0.50
2022-12-18T05:37:03.413Z,0.60
2022-12-18T05:39:31.535Z,1.77
2022-12-18T05:41:59.252Z,1.63
2022-12-18T05:44:27.158Z,0.87
2022-12-18T05:46:55.162Z,1.33
2022-12-18T05:49:22.920Z,0.80
2022-12-18T05:51:50.634Z,1.33
2022-12-18T05:54:19.679Z,1.30
2022-12-18T05:56:48.871Z,0.50
2022-12-18T05:59:16.973Z,2.07
2022-12-18T06:01:44.998Z,0.80
2022-12-18T06:04:12.882Z,1.20
2022-12-18T06:06:40.674Z,2.13
2022-12-18T06:09:10.237Z,1.13
2022-12-18T06:11:40.137Z,0.83
2022-12-18T06:14:08.789Z,1.07
2022-12-18T06:16:36.565Z,1.53
2022-12-18T06:19:06.843Z,0.93
2022-12-18T06:21:35.600Z,1.17
2022-12-18T06:24:04.084Z,1.10
2022-12-18T06:26:31.814Z,0.87
2022-12-18T06:29:01.264Z,1.27
2022-12-18T06:31:29.039Z,1.63
2022-12-18T06:33:57.034Z,1.33
2022-12-18T06:36:24.818Z,0.80
2022-12-18T06:38:52.532Z,1.23
2022-12-18T06:41:22.377Z,1.50
2022-12-18T06:43:50.155Z,0.90
2022-12-18T06:46:19.281Z,1.13
2022-12-18T06:48:50.446Z,2.23
2022-12-18T06:51:20.243Z,0.87
2022-12-18T06:53:47.984Z,1.33
2022-12-18T06:56:16.148Z,1.30
2022-12-18T06:58:44.530Z,1.90
2022-12-18T07:01:13.817Z,0.83
2022-12-18T07:03:44.296Z,2.43
2022-12-18T07:06:17.371Z,0.60
2022-12-18T07:08:45.217Z,0.93
2022-12-18T07:11:13.206Z,1.13
2022-12-18T07:13:41.490Z,2.90
2022-12-18T07:16:17.079Z,1.00
2022-12-18T07:18:48.035Z,1.17
2022-12-18T07:21:21.023Z,1.23
2022-12-18T07:23:48.894Z,1.90
2022-12-18T07:26:19.361Z,1.57
2022-12-18T07:28:47.121Z,1.30
2022-12-18T07:31:16.780Z,1.40
2022-12-18T07:33:45.017Z,4.83
2022-12-18T07:36:15.004Z,1.50
2022-12-18T07:38:42.793Z,1.70
2022-12-18T07:41:13.336Z,2.90
2022-12-18T07:43:42.613Z,6.10
2022-12-18T07:46:13.158Z,10.03
2022-12-18T07:48:41.600Z,20.80
2022-12-18T07:51:09.608Z,9.80
2022-12-18T07:53:39.163Z,5.90
2022-12-18T07:58:58.020Z,10.57
2022-12-18T08:01:26.284Z,9.87
2022-12-18T08:03:54.200Z,9.53
2022-12-18T08:06:24.350Z,6.60
2022-12-18T08:08:54.564Z,6.57
2022-12-18T08:11:23.028Z,4.43
2022-12-18T08:13:50.796Z,7.60
2022-12-18T08:16:19.064Z,9.97
2022-12-18T08:18:47.912Z,7.60
2022-12-18T08:21:18.971Z,6.10
2022-12-18T08:23:48.728Z,7.50
2022-12-18T08:26:18.611Z,7.00
2022-12-18T08:28:47.041Z,5.20
2022-12-18T08:31:15.885Z,7.03
2022-12-18T08:33:44.388Z,4.93
2022-12-18T08:36:12.545Z,4.23
2022-12-18T08:38:40.901Z,4.40
2022-12-18T08:41:11.839Z,5.70
2022-12-18T08:43:58.809Z,6.90
2022-12-18T08:46:28.317Z,4.17
2022-12-18T08:48:57.062Z,5.20
2022-12-18T08:51:24.829Z,6.10
2022-12-18T08:53:52.579Z,2.77
2022-12-18T08:56:20.295Z,4.77
2022-12-18T08:58:49.368Z,4.90
2022-12-18T09:01:17.264Z,5.77
2022-12-18T09:03:45.346Z,4.40
2022-12-18T09:06:16.667Z,5.30
2022-12-18T09:08:44.737Z,5.97
2022-12-18T09:11:16.399Z,4.60
2022-12-18T09:13:44.189Z,3.73
2022-12-18T09:16:13.403Z,5.47
2022-12-18T09:18:41.582Z,3.87
2022-12-18T09:21:11.186Z,4.57
2022-12-18T09:23:38.903Z,8.00
2022-12-18T09:26:06.846Z,4.40
2022-12-18T09:28:34.745Z,3.60
2022-12-18T09:31:07.409Z,3.30
2022-12-18T09:33:36.937Z,4.77
2022-12-18T09:36:06.238Z,4.20
2022-12-18T09:38:34.110Z,3.03
2022-12-18T09:41:06.578Z,3.33
2022-12-18T09:43:42.213Z,5.90
2022-12-18T09:46:12.916Z,3.00
2022-12-18T09:48:44.676Z,3.03
2022-12-18T09:51:17.264Z,3.00
2022-12-18T09:53:49.058Z,3.20
2022-12-18T09:56:23.570Z,5.43
2022-12-18T09:58:59.085Z,3.20
2022-12-18T10:01:37.688Z,4.23
2022-12-18T10:04:11.736Z,2.50
2022-12-18T10:06:46.874Z,1.70
2022-12-18T10:09:22.911Z,4.00
2022-12-18T10:12:02.500Z,2.00
2022-12-18T10:14:36.116Z,2.20
2022-12-18T10:17:12.477Z,4.23
2022-12-18T10:19:50.137Z,2.33
2022-12-18T10:22:29.456Z,2.93
2022-12-18T10:25:03.577Z,2.40
2022-12-18T10:27:32.282Z,3.00
2022-12-18T10:30:02.283Z,2.70
2022-12-18T10:32:32.265Z,3.30
2022-12-18T10:35:01.384Z,2.47
2022-12-18T10:37:31.625Z,2.13
2022-12-18T10:40:16.831Z,1.57
2022-12-18T10:43:04.670Z,2.23
2022-12-18T10:45:32.432Z,3.17
2022-12-18T10:48:00.675Z,3.43
2022-12-18T10:51:01.845Z,2.83
2022-12-18T10:53:23.508Z,1.80
2022-12-18T10:55:53.606Z,5.10
2022-12-18T10:58:26.866Z,2.33
2022-12-18T11:01:10.346Z,2.83
2022-12-18T11:03:40.360Z,4.10
2022-12-18T11:06:12.917Z,2.40
2022-12-18T11:08:41.717Z,2.73
2022-12-18T11:11:20.228Z,1.43
2022-12-18T11:13:59.461Z,3.77
2022-12-18T11:16:28.220Z,2.87
2022-12-18T11:18:56.414Z,2.10
2022-12-18T11:21:25.499Z,2.60
2022-12-18T11:23:55.101Z,4.33
2022-12-18T11:26:33.050Z,2.47
2022-12-18T11:29:11.832Z,2.53
2022-12-18T11:31:39.614Z,2.00
2022-12-18T11:34:29.301Z,3.17
2022-12-18T11:37:01.280Z,2.07
2022-12-18T11:39:36.720Z,3.20
2022-12-18T11:42:10.909Z,1.87
2022-12-18T11:44:44.563Z,3.10
2022-12-18T11:47:18.894Z,1.30
2022-12-18T11:49:51.298Z,4.20
2022-12-18T11:52:24.778Z,1.60
2022-12-18T11:54:54.707Z,1.80
2022-12-18T11:57:35.023Z,3.77
2022-12-18T12:00:06.679Z,1.60
2022-12-18T12:03:17.878Z,2.03
2022-12-18T12:05:58.506Z,5.80
2022-12-18T12:08:39.239Z,3.77
2022-12-18T12:11:12.248Z,2.10
2022-12-18T12:13:49.790Z,4.23
2022-12-18T12:16:23.438Z,5.93
2022-12-18T12:19:08.974Z,13.77
2022-12-18T12:21:42.438Z,12.53
2022-12-18T12:24:28.698Z,8.57
2022-12-18T12:27:02.981Z,6.13
2022-12-18T12:29:40.158Z,8.10
2022-12-18T12:32:20.939Z,5.77
2022-12-18T12:35:07.752Z,6.30
2022-12-18T12:37:44.680Z,8.80
2022-12-18T12:40:49.121Z,4.70
2022-12-18T12:43:17.277Z,4.97
2022-12-18T12:45:51.142Z,5.20
2022-12-18T12:48:25.016Z,4.90
2022-12-18T12:50:54.265Z,3.83
2022-12-18T12:53:28.340Z,5.10
2022-12-18T12:55:58.541Z,4.97
2022-12-18T12:58:35.523Z,6.10
2022-12-18T13:01:12.660Z,5.13
2022-12-18T13:03:48.821Z,4.97
2022-12-18T13:06:25.770Z,7.47
2022-12-18T13:08:57.457Z,5.43
2022-12-18T13:11:59.569Z,4.47
2022-12-18T13:14:33.517Z,3.73
2022-12-18T13:17:18.386Z,4.63
2022-12-18T13:19:46.626Z,4.60
2022-12-18T13:22:25.204Z,2.03
2022-12-18T13:24:53.232Z,4.63
2022-12-18T13:27:57.496Z,4.67
2022-12-18T13:30:46.906Z,7.10
2022-12-18T13:36:39.901Z,2.70
2022-12-18T13:39:35.175Z,3.63
2022-12-18T13:42:59.040Z,3.33
2022-12-18T13:45:49.179Z,5.80
2022-12-18T13:48:20.116Z,5.27
2022-12-18T13:50:55.711Z,3.97
2022-12-18T13:53:26.677Z,2.03
2022-12-18T13:55:55.496Z,4.03
2022-12-18T13:58:23.291Z,4.40
2022-12-18T14:00:52.477Z,3.73
2022-12-18T14:03:23.894Z,4.67
2022-12-18T14:05:57.660Z,4.60
2022-12-18T14:08:26.989Z,2.60
2022-12-18T14:10:55.436Z,4.40
2022-12-18T14:13:28.840Z,2.80
2022-12-18T14:16:00.900Z,3.83
2022-12-18T14:18:40.917Z,2.90
2022-12-18T14:21:17.525Z,3.10
2022-12-18T14:23:46.117Z,1.93
2022-12-18T14:26:25.380Z,4.17
2022-12-18T14:28:54.706Z,5.90
2022-12-18T14:31:25.654Z,2.90
2022-12-18T14:33:53.839Z,1.83
2022-12-18T14:36:23.341Z,1.97
2022-12-18T14:38:52.842Z,3.40
2022-12-18T14:41:21.723Z,2.53
2022-12-18T14:43:52.095Z,2.77
2022-12-18T14:46:37.548Z,3.23
2022-12-18T14:49:07.547Z,3.53
2022-12-18T14:51:36.214Z,3.40
2022-12-18T14:54:08.812Z,2.60
2022-12-18T14:56:38.167Z,3.53
2022-12-18T14:59:08.167Z,2.30
2022-12-18T15:01:39.073Z,2.73
2022-12-18T15:04:24.960Z,2.73
2022-12-18T15:07:05.423Z,3.23
2022-12-18T15:09:33.274Z,3.77
2022-12-18T15:12:02.223Z,6.10
2022-12-18T15:14:36.724Z,3.00
2022-12-18T15:17:08.678Z,3.13
2022-12-18T15:19:42.394Z,3.10
2022-12-18T15:22:26.881Z,4.73
2022-12-18T15:24:55.755Z,3.80
2022-12-18T15:27:32.769Z,5.00
2022-12-18T15:30:18.919Z,5.67
2022-12-18T15:32:48.635Z,6.20
2022-12-18T15:35:19.384Z,23.27
2022-12-18T15:37:47.349Z,7.40
2022-12-18T15:40:16.299Z,9.47
2022-12-18T15:43:03.657Z,5.27
2022-12-18T15:45:31.377Z,5.93
2022-12-18T15:48:01.088Z,7.40
2022-12-18T15:50:28.787Z,7.70
2022-12-18T15:52:57.156Z,7.40
2022-12-18T15:55:44.039Z,4.13
2022-12-18T15:58:12.887Z,6.83
2022-12-18T16:00:42.567Z,5.03
2022-12-18T16:03:11.984Z,5.00
2022-12-18T16:05:40.165Z,4.70
2022-12-18T16:08:07.914Z,4.00
2022-12-18T16:10:36.733Z,5.73
2022-12-18T16:13:04.452Z,3.90
2022-12-18T16:15:32.287Z,5.30
2022-12-18T16:18:00.039Z,5.17
2022-12-18T16:20:29.105Z,4.13
2022-12-18T16:22:56.836Z,4.37
2022-12-18T16:25:26.733Z,3.17
2022-12-18T16:27:56.014Z,4.70
2022-12-18T16:30:26.335Z,4.30
2022-12-18T16:32:54.308Z,3.20
2022-12-18T16:35:22.297Z,4.47
2022-12-18T16:37:51.318Z,3.50
2022-12-18T16:40:19.905Z,2.00
2022-12-18T16:42:48.355Z,5.23
2022-12-18T16:45:17.898Z,3.30
2022-12-18T16:47:45.971Z,4.37
2022-12-18T16:50:13.787Z,5.93
2022-12-18T16:52:42.064Z,3.93
2022-12-18T16:55:11.433Z,2.20
2022-12-18T16:57:39.162Z,3.70
2022-12-18T17:00:08.412Z,4.97
2022-12-18T17:02:37.694Z,3.70
2022-12-18T17:05:06.524Z,3.70
2022-12-18T17:07:34.336Z,2.83
2022-12-18T17:10:03.592Z,1.83
2022-12-18T17:12:33.868Z,2.53
2022-12-18T17:15:01.643Z,3.70
2022-12-18T17:17:29.453Z,3.27
2022-12-18T17:19:57.237Z,3.13
2022-12-18T17:22:25.085Z,3.50
2022-12-18T17:24:52.828Z,3.00
2022-12-18T17:27:20.536Z,2.00
2022-12-18T17:29:49.598Z,4.67
2022-12-18T17:32:17.658Z,3.17
2022-12-18T17:34:45.651Z,2.67
2022-12-18T17:37:13.423Z,2.60
2022-12-18T17:39:41.935Z,2.13
2022-12-18T17:42:15.244Z,4.17
2022-12-18T17:44:43.941Z,2.20
2022-12-18T17:47:13.441Z,2.30
2022-12-18T17:49:41.824Z,2.40
2022-12-18T17:52:10.122Z,3.30
2022-12-18T17:54:39.513Z,4.33
2022-12-18T17:57:07.309Z,2.37
2022-12-18T17:59:35.173Z,2.63
2022-12-18T18:02:03.170Z,4.40
2022-12-18T18:04:32.440Z,3.30
2022-12-18T18:07:00.170Z,1.90
2022-12-18T18:09:28.232Z,2.10
2022-12-18T18:12:14.822Z,3.20
2022-12-18T18:14:42.571Z,2.97
2022-12-18T18:17:10.365Z,3.30
2022-12-18T18:19:39.423Z,4.00
2022-12-18T18:22:08.462Z,1.73
2022-12-18T18:24:36.416Z,1.90
2022-12-18T18:27:04.298Z,3.50
2022-12-18T18:29:32.228Z,2.50
2022-12-18T18:32:00.535Z,2.90
2022-12-18T18:34:30.868Z,3.43
2022-12-18T18:37:00.465Z,1.67
2022-12-18T18:39:28.838Z,2.60
2022-12-18T18:41:56.716Z,2.00
2022-12-18T18:44:25.788Z,2.37
2022-12-18T18:46:55.147Z,3.30
2022-12-18T18:49:24.053Z,4.27
2022-12-18T18:51:52.260Z,4.57
2022-12-18T18:54:22.044Z,3.27
2022-12-18T18:59:38.211Z,6.73
2022-12-18T19:02:06.096Z,11.50
2022-12-18T19:04:34.454Z,6.70
2022-12-18T19:07:02.407Z,9.70
2022-12-18T19:09:31.812Z,7.47
2022-12-18T19:12:17.494Z,8.13
2022-12-18T19:14:45.466Z,7.13
2022-12-18T19:17:13.193Z,5.37
2022-12-18T19:19:41.233Z,5.87
2022-12-18T19:22:09.281Z,4.40
2022-12-18T19:24:38.793Z,6.37
2022-12-18T19:27:06.591Z,7.63
2022-12-18T19:29:34.317Z,7.43
2022-12-18T19:32:04.827Z,5.33
2022-12-18T19:34:32.646Z,7.57
2022-12-18T19:37:00.418Z,6.77
2022-12-18T19:39:28.359Z,3.23
2022-12-18T19:41:57.399Z,5.07
2022-12-18T19:44:25.100Z,7.23
2022-12-18T19:46:52.946Z,6.20
2022-12-18T19:49:22.019Z,6.23
2022-12-18T19:51:50.264Z,3.87
2022-12-18T19:54:18.679Z,5.00
2022-12-18T19:56:46.944Z,6.20
2022-12-18T19:59:16.149Z,5.00
2022-12-18T20:01:44.000Z,6.00
2022-12-18T20:04:11.908Z,4.33
2022-12-18T20:06:48.550Z,5.53
2022-12-18T20:09:16.752Z,4.53
2022-12-18T20:11:45.630Z,3.53
2022-12-18T20:14:14.642Z,3.23
2022-12-18T20:16:53.402Z,3.70
2022-12-18T20:19:21.771Z,4.20
2022-12-18T20:21:49.634Z,4.47
2022-12-18T20:24:17.377Z,4.20
2022-12-18T20:26:45.318Z,5.43
2022-12-18T20:29:13.040Z,5.30
2022-12-18T20:31:41.574Z,3.40
2022-12-18T20:34:10.723Z,5.13
2022-12-18T20:36:39.813Z,4.23
2022-12-18T20:39:10.838Z,2.40
2022-12-18T20:41:39.327Z,3.70
2022-12-18T20:44:21.425Z,5.33
2022-12-18T20:46:50.193Z,3.80
2022-12-18T20:49:19.285Z,2.37
2022-12-18T20:51:47.025Z,3.50
2022-12-18T20:54:14.746Z,4.67
2022-12-18T20:56:42.469Z,3.37
2022-12-18T20:59:11.257Z,2.57
2022-12-18T21:01:40.114Z,3.83
2022-12-18T21:04:14.160Z,3.10
2022-12-18T21:06:47.689Z,4.40
2022-12-18T21:09:18.577Z,6.93
2022-12-18T21:12:04.043Z,5.17
2022-12-18T21:14:31.945Z,2.30
2022-12-18T21:17:01.779Z,2.57
2022-12-18T21:19:30.138Z,2.73
2022-12-18T21:21:59.497Z,2.83
2022-12-18T21:24:28.157Z,3.33
2022-12-18T21:26:58.360Z,4.07
2022-12-18T21:29:27.136Z,2.30
2022-12-18T21:31:55.398Z,4.23
2022-12-18T21:34:26.391Z,3.10
2022-12-18T21:36:54.707Z,3.30
2022-12-18T21:39:24.176Z,5.63
2022-12-18T21:42:09.828Z,2.03
2022-12-18T21:44:41.625Z,3.60
2022-12-18T21:47:21.926Z,2.30
2022-12-18T21:49:51.579Z,1.43
2022-12-18T21:52:19.713Z,2.87
2022-12-18T21:54:50.657Z,2.67
2022-12-18T21:57:18.864Z,3.20
2022-12-18T21:59:46.605Z,2.47
2022-12-18T22:02:16.429Z,2.07
2022-12-18T22:04:45.943Z,2.53
2022-12-18T22:07:14.731Z,2.10
2022-12-18T22:09:43.195Z,2.37
2022-12-18T22:12:34.012Z,2.30
2022-12-18T22:15:02.826Z,3.53
2022-12-18T22:17:30.561Z,3.13
2022-12-18T22:19:58.623Z,3.20
2022-12-18T22:22:26.413Z,2.93
2022-12-18T22:24:54.137Z,4.10
2022-12-18T22:27:23.213Z,3.10
2022-12-18T22:30:05.079Z,2.50
2022-12-18T22:32:33.722Z,2.60
2022-12-18T22:35:12.780Z,3.17
2022-12-18T22:37:43.297Z,1.00
2022-12-18T22:40:23.973Z,2.37
2022-12-18T22:42:54.779Z,2.60
2022-12-18T22:45:24.217Z,3.30
2022-12-18T22:47:52.174Z,1.53
2022-12-18T22:50:20.219Z,1.97
2022-12-18T22:52:48.020Z,1.87
2022-12-18T22:55:15.790Z,1.63
2022-12-18T22:57:48.766Z,3.10
2022-12-18T23:00:23.907Z,2.87
2022-12-18T23:02:57.866Z,2.67
2022-12-18T23:05:29.367Z,3.20
2022-12-18T23:07:58.279Z,2.20
2022-12-18T23:10:26.605Z,3.10
2022-12-18T23:12:54.420Z,2.17
2022-12-18T23:15:28.256Z,3.03
2022-12-18T23:17:58.238Z,1.97
2022-12-18T23:20:26.984Z,1.73
2022-12-18T23:22:54.720Z,4.90
2022-12-18T23:25:22.449Z,4.33
2022-12-18T23:27:50.272Z,2.03
2022-12-18T23:30:18.043Z,2.37
2022-12-18T23:32:47.153Z,2.13
2022-12-18T23:35:15.832Z,2.20
2022-12-18T23:38:00.139Z,3.13
2022-12-18T23:40:29.498Z,2.63
2022-12-18T23:42:57.336Z,1.53
2022-12-18T23:45:25.046Z,2.50
2022-12-18T23:47:55.154Z,1.90
2022-12-18T23:50:28.967Z,2.33
2022-12-18T23:53:04.639Z,1.27
2022-12-18T23:55:34.508Z,2.60
2022-12-18T23:58:02.276Z,2.30
